createdAt,value
2022-11-09T00:00:11.631Z,50.04
2022-11-09T00:02:43.711Z,49.82
2022-11-09T00:05:10.535Z,49.72
2022-11-09T00:07:37.897Z,49.67
2022-11-09T00:10:04.405Z,50.06
2022-11-09T00:12:31.797Z,49.87
2022-11-09T00:14:58.258Z,49.55
2022-11-09T00:17:25.644Z,49.53
2022-11-09T00:19:52.088Z,49.54
2022-11-09T00:22:18.564Z,50.03
2022-11-09T00:24:45.946Z,50.07
2022-11-09T00:27:17.334Z,50.07
2022-11-09T00:29:45.063Z,50.31
2022-11-09T00:32:11.523Z,50.06
2022-11-09T00:34:37.963Z,50.29
2022-11-09T00:37:04.407Z,50.23
2022-11-09T00:39:31.772Z,50.28
2022-11-09T00:41:59.136Z,50.30
2022-11-09T00:44:25.618Z,50.48
2022-11-09T00:46:52.060Z,50.24
2022-11-09T00:49:18.503Z,50.50
2022-11-09T00:51:44.905Z,50.11
2022-11-09T00:54:11.328Z,50.28
2022-11-09T00:56:37.771Z,50.56
2022-11-09T00:59:05.146Z,50.41
2022-11-09T01:01:32.577Z,49.99
2022-11-09T01:03:59.975Z,50.29
2022-11-09T01:06:26.524Z,50.26
2022-11-09T01:08:54.001Z,49.96
2022-11-09T01:11:21.430Z,50.52
2022-11-09T01:16:33.688Z,50.00
2022-11-09T01:19:00.151Z,50.08
2022-11-09T01:21:26.609Z,50.27
2022-11-09T01:23:53.064Z,49.86
2022-11-09T01:26:19.524Z,50.11
2022-11-09T01:31:42.039Z,50.13
2022-11-09T01:34:08.493Z,49.99
2022-11-09T01:36:34.937Z,50.13
2022-11-09T01:39:01.377Z,49.70
2022-11-09T01:41:27.808Z,49.40
2022-11-09T01:46:49.955Z,49.90
2022-11-09T01:49:17.399Z,49.51
2022-11-09T01:51:44.754Z,49.89
2022-11-09T01:54:11.189Z,49.95
2022-11-09T01:56:38.532Z,49.75
2022-11-09T02:01:49.671Z,50.33
2022-11-09T02:04:16.097Z,49.80
2022-11-09T02:06:43.525Z,50.19
2022-11-09T02:09:10.901Z,50.20
2022-11-09T02:11:38.280Z,49.93
2022-11-09T02:16:49.407Z,49.66
2022-11-09T02:19:16.767Z,50.06
2022-11-09T02:21:43.220Z,49.87
2022-11-09T02:24:10.590Z,49.91
2022-11-09T02:26:37.026Z,50.09
2022-11-09T02:31:47.230Z,49.97
2022-11-09T02:34:14.598Z,49.17
2022-11-09T02:36:41.982Z,49.71
2022-11-09T02:39:08.464Z,49.30
2022-11-09T02:41:34.904Z,50.31
2022-11-09T02:46:57.122Z,49.62
2022-11-09T02:49:23.554Z,49.55
2022-11-09T02:51:51.088Z,49.48
2022-11-09T02:54:18.470Z,49.41
2022-11-09T02:56:44.905Z,49.85
2022-11-09T03:02:05.229Z,50.06
2022-11-09T03:04:31.692Z,49.34
2022-11-09T03:06:59.131Z,49.81
2022-11-09T03:09:26.545Z,50.20
2022-11-09T03:11:52.993Z,50.15
2022-11-09T03:17:13.253Z,49.98
2022-11-09T03:19:40.645Z,50.04
2022-11-09T03:22:08.036Z,50.00
2022-11-09T03:24:34.559Z,49.76
2022-11-09T03:27:01.010Z,49.90
2022-11-09T03:32:12.534Z,50.20
2022-11-09T03:34:38.974Z,50.14
2022-11-09T03:37:06.407Z,49.93
2022-11-09T03:39:32.858Z,50.03
2022-11-09T03:41:59.374Z,50.28
2022-11-09T03:47:09.792Z,49.95
2022-11-09T03:49:36.253Z,50.29
2022-11-09T03:52:03.687Z,49.66
2022-11-09T03:54:31.100Z,50.16
2022-11-09T03:56:57.533Z,50.14
2022-11-09T04:02:18.754Z,50.25
2022-11-09T04:04:46.118Z,49.99
2022-11-09T04:07:13.586Z,50.58
2022-11-09T04:09:40.076Z,50.50
2022-11-09T04:12:07.451Z,50.61
2022-11-09T04:17:28.700Z,50.55
2022-11-09T04:19:56.158Z,50.30
2022-11-09T04:22:22.641Z,50.37
2022-11-09T04:24:50.017Z,50.04
2022-11-09T04:27:17.385Z,50.14
2022-11-09T04:32:29.851Z,49.90
2022-11-09T04:34:57.234Z,50.64
2022-11-09T04:37:24.676Z,50.78
2022-11-09T04:39:51.129Z,50.78
2022-11-09T04:42:17.663Z,50.55
2022-11-09T04:47:29.270Z,50.64
2022-11-09T04:49:56.628Z,50.79
2022-11-09T04:52:24.021Z,50.65
2022-11-09T04:54:50.477Z,50.53
2022-11-09T04:57:16.928Z,50.56
2022-11-09T05:02:39.418Z,50.46
2022-11-09T05:05:06.898Z,50.42
2022-11-09T05:07:33.223Z,50.64
2022-11-09T05:09:59.679Z,51.11
2022-11-09T05:12:26.128Z,50.59
2022-11-09T05:17:36.470Z,51.01
2022-11-09T05:20:02.940Z,51.05
2022-11-09T05:22:29.399Z,51.29
2022-11-09T05:24:55.855Z,50.86
2022-11-09T05:27:23.232Z,50.51
2022-11-09T05:32:45.690Z,51.32
2022-11-09T05:35:13.048Z,51.39
2022-11-09T05:37:39.495Z,51.56
2022-11-09T05:40:06.898Z,51.38
2022-11-09T05:42:33.342Z,51.57
2022-11-09T05:47:54.621Z,51.21
2022-11-09T05:50:22.085Z,51.28
2022-11-09T05:52:49.512Z,51.39
2022-11-09T05:55:15.942Z,51.33
2022-11-09T05:57:42.456Z,51.30
2022-11-09T06:02:53.965Z,51.03
2022-11-09T06:05:20.423Z,51.20
2022-11-09T06:07:47.214Z,51.35
2022-11-09T06:10:13.719Z,51.28
2022-11-09T06:12:41.116Z,50.93
2022-11-09T06:17:51.444Z,51.36
2022-11-09T06:20:18.824Z,51.16
2022-11-09T06:22:45.256Z,51.16
2022-11-09T06:25:12.044Z,51.33
2022-11-09T06:27:39.676Z,51.19
2022-11-09T06:33:02.452Z,51.36
2022-11-09T06:35:30.182Z,51.70
2022-11-09T06:37:56.888Z,50.94
2022-11-09T06:40:24.606Z,51.51
2022-11-09T06:42:51.099Z,51.68
2022-11-09T06:48:12.454Z,51.59
2022-11-09T06:50:38.899Z,51.61
2022-11-09T06:53:06.322Z,51.21
2022-11-09T06:55:33.694Z,51.14
2022-11-09T06:58:01.113Z,51.41
2022-11-09T07:03:22.606Z,51.34
2022-11-09T07:05:50.370Z,51.32
2022-11-09T07:08:16.821Z,51.83
2022-11-09T07:10:44.253Z,51.44
2022-11-09T07:13:11.652Z,51.48
2022-11-09T07:18:23.159Z,51.11
2022-11-09T07:20:49.600Z,51.18
2022-11-09T07:23:17.090Z,51.28
2022-11-09T07:25:43.627Z,50.77
2022-11-09T07:28:11.002Z,51.04
2022-11-09T07:33:33.086Z,50.99
2022-11-09T07:35:59.626Z,51.56
2022-11-09T07:38:26.084Z,51.83
2022-11-09T07:40:53.485Z,51.41
2022-11-09T07:43:20.319Z,51.57
2022-11-09T07:48:31.901Z,51.22
2022-11-09T07:50:59.290Z,51.79
2022-11-09T07:53:25.781Z,51.50
2022-11-09T07:55:52.267Z,51.23
2022-11-09T07:58:19.635Z,51.65
2022-11-09T08:03:31.208Z,51.50
2022-11-09T08:05:58.524Z,51.41
2022-11-09T08:08:25.010Z,51.34
2022-11-09T08:10:51.530Z,51.48
2022-11-09T08:13:19.234Z,51.40
2022-11-09T08:18:29.715Z,51.55
2022-11-09T08:20:57.085Z,51.26
2022-11-09T08:23:23.544Z,51.31
2022-11-09T08:25:49.985Z,51.31
2022-11-09T08:28:16.519Z,51.55
2022-11-09T08:33:38.081Z,51.57
2022-11-09T08:36:04.538Z,51.44
2022-11-09T08:38:31.004Z,51.46
2022-11-09T08:40:57.486Z,50.97
2022-11-09T08:43:23.946Z,51.55
2022-11-09T08:48:44.181Z,51.57
2022-11-09T08:51:11.604Z,51.61
2022-11-09T08:53:38.027Z,50.98
2022-11-09T08:56:05.434Z,50.82
2022-11-09T08:58:32.808Z,49.45
2022-11-09T09:03:53.984Z,48.52
2022-11-09T09:06:20.436Z,48.50
2022-11-09T09:08:47.819Z,47.93
2022-11-09T09:11:14.322Z,47.24
2022-11-09T09:13:43.551Z,47.99
2022-11-09T09:18:54.569Z,49.49
2022-11-09T09:21:22.009Z,49.51
2022-11-09T09:23:48.452Z,49.47
2022-11-09T09:26:15.810Z,47.94
2022-11-09T09:28:42.327Z,43.29
2022-11-09T09:33:53.917Z,47.97
2022-11-09T09:36:20.366Z,49.10
2022-11-09T09:38:47.805Z,48.48
2022-11-09T09:41:15.150Z,49.29
2022-11-09T09:43:43.275Z,49.42
2022-11-09T09:49:05.078Z,49.15
2022-11-09T09:51:31.542Z,49.11
2022-11-09T09:53:58.001Z,49.04
2022-11-09T09:56:24.498Z,48.48
2022-11-09T09:58:50.941Z,48.52
2022-11-09T10:04:12.474Z,49.49
2022-11-09T10:06:38.998Z,48.67
2022-11-09T10:09:05.512Z,49.73
2022-11-09T10:11:32.000Z,50.22
2022-11-09T10:13:58.446Z,49.96
2022-11-09T10:19:09.106Z,49.83
2022-11-09T10:21:36.474Z,50.02
2022-11-09T10:24:03.906Z,49.86
2022-11-09T10:26:31.275Z,50.01
2022-11-09T10:29:15.643Z,49.68
2022-11-09T10:34:28.956Z,50.22
2022-11-09T10:36:55.473Z,50.00
2022-11-09T10:39:21.986Z,50.42
2022-11-09T10:41:48.451Z,49.97
2022-11-09T10:44:17.633Z,50.29
2022-11-09T10:49:28.429Z,50.37
2022-11-09T10:51:54.897Z,49.74
2022-11-09T10:54:21.353Z,49.92
2022-11-09T10:59:35.174Z,50.13
2022-11-09T11:04:55.465Z,49.65
2022-11-09T11:07:22.020Z,49.68
2022-11-09T11:09:48.589Z,49.66
2022-11-09T11:12:16.019Z,49.83
2022-11-09T11:14:42.513Z,49.95
2022-11-09T11:19:55.116Z,49.93
2022-11-09T11:22:21.581Z,50.00
2022-11-09T11:24:48.068Z,50.13
2022-11-09T11:27:15.446Z,50.00
2022-11-09T11:29:41.934Z,50.73
2022-11-09T11:35:00.303Z,50.23
2022-11-09T11:37:27.700Z,50.13
2022-11-09T11:39:54.248Z,50.70
2022-11-09T11:42:21.882Z,50.80
2022-11-09T11:44:56.742Z,50.86
2022-11-09T11:50:24.459Z,50.82
2022-11-09T11:52:51.871Z,51.01
2022-11-09T11:55:19.277Z,50.79
2022-11-09T11:57:45.758Z,50.68
2022-11-09T12:00:12.215Z,51.29
2022-11-09T12:05:23.390Z,50.88
2022-11-09T12:07:52.290Z,51.24
2022-11-09T12:10:23.591Z,51.90
2022-11-09T12:12:50.051Z,51.47
2022-11-09T12:15:16.520Z,51.93
2022-11-09T12:20:28.308Z,51.61
2022-11-09T12:22:54.779Z,51.27
2022-11-09T12:25:21.258Z,51.29
2022-11-09T12:27:47.726Z,51.44
2022-11-09T12:30:14.209Z,51.30
2022-11-09T12:35:35.566Z,51.22
2022-11-09T12:38:02.974Z,51.24
2022-11-09T12:40:30.381Z,51.17
2022-11-09T12:42:56.831Z,51.64
2022-11-09T12:45:23.293Z,51.51
2022-11-09T12:50:34.651Z,51.19
2022-11-09T12:53:01.136Z,51.63
2022-11-09T12:55:27.583Z,51.81
2022-11-09T12:57:58.223Z,51.87
2022-11-09T13:00:28.055Z,51.99
2022-11-09T13:05:39.370Z,52.04
2022-11-09T13:08:06.757Z,51.67
2022-11-09T13:10:33.211Z,52.20
2022-11-09T13:13:00.607Z,52.05
2022-11-09T13:15:28.013Z,52.03
2022-11-09T13:20:57.762Z,52.01
2022-11-09T13:23:41.544Z,52.15
2022-11-09T13:26:10.757Z,52.41
2022-11-09T13:28:37.166Z,51.71
2022-11-09T13:31:04.558Z,52.12
2022-11-09T13:36:26.090Z,52.33
2022-11-09T13:38:52.593Z,52.08
2022-11-09T13:41:19.032Z,52.21
2022-11-09T13:43:46.281Z,52.23
2022-11-09T13:46:13.959Z,52.23
2022-11-09T13:51:25.573Z,52.13
2022-11-09T13:53:52.965Z,52.22
2022-11-09T13:56:24.721Z,52.16
2022-11-09T13:58:54.443Z,52.21
2022-11-09T14:01:21.814Z,52.02
2022-11-09T14:06:32.716Z,51.88
2022-11-09T14:09:00.089Z,52.45
2022-11-09T14:11:26.760Z,51.69
2022-11-09T14:13:55.989Z,52.36
2022-11-09T14:16:24.366Z,52.03
2022-11-09T14:21:45.865Z,52.17
2022-11-09T14:24:12.323Z,52.39
2022-11-09T14:26:38.778Z,52.12
2022-11-09T14:29:05.258Z,51.94
2022-11-09T14:31:32.640Z,52.17
2022-11-09T14:36:54.679Z,51.70
2022-11-09T14:39:22.094Z,52.06
2022-11-09T14:41:48.834Z,52.73
2022-11-09T14:44:15.298Z,52.61
2022-11-09T14:46:41.752Z,52.36
2022-11-09T14:51:52.406Z,52.49
2022-11-09T14:54:19.788Z,52.38
2022-11-09T14:56:47.210Z,52.28
2022-11-09T14:59:13.691Z,52.17
2022-11-09T15:01:41.888Z,52.25
2022-11-09T15:06:53.302Z,51.83
2022-11-09T15:09:20.007Z,51.89
2022-11-09T15:11:47.461Z,52.39
2022-11-09T15:14:13.985Z,52.06
2022-11-09T15:16:40.442Z,51.96
2022-11-09T15:22:01.909Z,52.25
2022-11-09T15:24:28.394Z,52.60
2022-11-09T15:26:54.853Z,52.30
2022-11-09T15:29:22.242Z,52.59
2022-11-09T15:31:49.660Z,52.72
2022-11-09T15:37:01.218Z,46.22
2022-11-09T15:39:27.699Z,45.26
2022-11-09T15:41:55.035Z,47.30
2022-11-09T15:44:21.471Z,49.18
2022-11-09T15:46:49.096Z,49.93
2022-11-09T15:52:02.595Z,47.24
2022-11-09T15:54:29.308Z,46.59
2022-11-09T15:56:55.755Z,46.13
2022-11-09T15:59:23.247Z,45.58
2022-11-09T16:01:50.736Z,48.49
2022-11-09T16:07:11.153Z,49.36
2022-11-09T16:09:38.759Z,45.77
2022-11-09T16:12:06.262Z,49.02
2022-11-09T16:14:34.008Z,48.02
2022-11-09T16:17:01.486Z,49.32
2022-11-09T16:22:13.802Z,49.19
2022-11-09T16:24:41.181Z,49.96
2022-11-09T16:27:12.777Z,47.90
2022-11-09T16:29:43.573Z,45.98
2022-11-09T16:32:11.182Z,46.71
2022-11-09T16:37:23.293Z,48.92
2022-11-09T16:39:50.117Z,49.56
2022-11-09T16:42:16.652Z,49.90
2022-11-09T16:44:43.159Z,49.92
2022-11-09T16:47:10.089Z,50.68
2022-11-09T16:52:31.923Z,50.56
2022-11-09T16:55:00.452Z,50.01
2022-11-09T16:57:26.917Z,50.07
2022-11-09T16:59:53.387Z,51.02
2022-11-09T17:02:20.899Z,47.64
2022-11-09T17:07:43.087Z,49.14
2022-11-09T17:10:10.311Z,49.86
2022-11-09T17:12:38.626Z,50.43
2022-11-09T17:15:05.907Z,48.82
2022-11-09T17:17:33.322Z,48.57
2022-11-09T17:22:46.226Z,50.42
2022-11-09T17:25:13.870Z,50.60
2022-11-09T17:27:41.380Z,45.74
2022-11-09T17:30:08.169Z,44.85
2022-11-09T17:32:35.586Z,45.65
2022-11-09T17:37:47.130Z,45.21
2022-11-09T17:40:14.610Z,44.72
2022-11-09T17:42:41.092Z,44.61
2022-11-09T17:45:07.583Z,47.65
2022-11-09T17:47:34.983Z,48.44
2022-11-09T17:52:55.717Z,48.03
2022-11-09T17:55:22.224Z,48.43
2022-11-09T17:57:48.727Z,48.00
2022-11-09T18:00:16.692Z,48.13
2022-11-09T18:02:44.076Z,48.42
2022-11-09T18:07:55.438Z,48.94
2022-11-09T18:10:22.079Z,48.54
2022-11-09T18:12:49.483Z,45.60
2022-11-09T18:15:15.970Z,44.21
2022-11-09T18:17:42.441Z,44.79
2022-11-09T18:22:53.773Z,45.78
2022-11-09T18:25:21.145Z,44.58
2022-11-09T18:27:48.571Z,46.52
2022-11-09T18:30:15.067Z,47.16
2022-11-09T18:32:42.689Z,47.53
2022-11-09T18:37:54.897Z,48.79
2022-11-09T18:40:21.374Z,49.24
2022-11-09T18:42:49.199Z,49.20
2022-11-09T18:45:15.707Z,48.78
2022-11-09T18:47:42.607Z,47.46
2022-11-09T18:53:03.156Z,45.29
2022-11-09T18:55:29.655Z,44.09
2022-11-09T18:57:56.216Z,44.33
2022-11-09T19:00:22.673Z,47.32
2022-11-09T19:02:49.327Z,48.39
2022-11-09T19:08:10.578Z,43.54
2022-11-09T19:10:37.365Z,46.88
2022-11-09T19:13:04.807Z,43.91
2022-11-09T19:15:32.237Z,44.30
2022-11-09T19:18:01.532Z,44.57
2022-11-09T19:23:12.178Z,47.92
2022-11-09T19:25:39.586Z,48.04
2022-11-09T19:28:06.964Z,45.55
2022-11-09T19:30:33.436Z,45.31
2022-11-09T19:32:59.910Z,44.70
2022-11-09T19:38:22.247Z,48.15
2022-11-09T19:40:49.133Z,48.03
2022-11-09T19:43:16.553Z,47.36
2022-11-09T19:45:43.001Z,47.71
2022-11-09T19:48:09.488Z,47.64
2022-11-09T19:53:32.018Z,47.57
2022-11-09T19:55:59.102Z,47.92
2022-11-09T19:58:26.491Z,46.83
2022-11-09T20:00:53.888Z,47.43
2022-11-09T20:03:21.290Z,47.20
2022-11-09T20:08:32.625Z,47.69
2022-11-09T20:11:00.032Z,47.45
2022-11-09T20:13:26.547Z,47.97
2022-11-09T20:15:53.042Z,47.55
2022-11-09T20:18:20.789Z,46.84
2022-11-09T20:23:42.484Z,49.39
2022-11-09T20:26:08.985Z,50.03
2022-11-09T20:28:36.369Z,50.16
2022-11-09T20:31:02.834Z,50.09
2022-11-09T20:33:30.233Z,50.05
2022-11-09T20:38:52.444Z,50.51
2022-11-09T20:41:25.057Z,50.12
2022-11-09T20:43:51.926Z,50.01
2022-11-09T20:46:19.360Z,50.01
2022-11-09T20:48:55.045Z,49.91
2022-11-09T20:54:17.187Z,50.45
2022-11-09T20:56:44.589Z,49.09
2022-11-09T20:59:11.960Z,47.93
2022-11-09T21:01:38.665Z,47.36
2022-11-09T21:04:05.161Z,47.46
2022-11-09T21:09:16.630Z,48.19
2022-11-09T21:11:44.001Z,47.93
2022-11-09T21:14:11.831Z,48.28
2022-11-09T21:16:38.288Z,48.28
2022-11-09T21:19:05.708Z,47.73
2022-11-09T21:24:27.130Z,46.05
2022-11-09T21:26:53.710Z,46.53
2022-11-09T21:29:21.112Z,45.82
2022-11-09T21:31:48.516Z,45.85
2022-11-09T21:34:15.898Z,45.02
2022-11-09T21:39:26.219Z,46.02
2022-11-09T21:41:52.692Z,45.97
2022-11-09T21:44:20.093Z,44.71
2022-11-09T21:46:46.583Z,43.64
2022-11-09T21:49:14.179Z,43.87
2022-11-09T21:54:26.863Z,45.48
2022-11-09T21:56:53.582Z,46.08
2022-11-09T21:59:20.979Z,46.97
2022-11-09T22:01:47.524Z,48.00
2022-11-09T22:04:14.925Z,47.68
2022-11-09T22:09:57.815Z,47.94
2022-11-09T22:12:22.694Z,48.02
2022-11-09T22:14:49.180Z,47.85
2022-11-09T22:17:16.573Z,48.17
2022-11-09T22:19:43.951Z,48.05
2022-11-09T22:24:55.247Z,48.52
2022-11-09T22:27:22.656Z,48.29
2022-11-09T22:29:49.122Z,48.60
2022-11-09T22:32:15.570Z,48.80
2022-11-09T22:34:42.967Z,48.72
2022-11-09T22:39:53.582Z,48.84
2022-11-09T22:42:20.047Z,48.38
2022-11-09T22:44:47.445Z,48.48
2022-11-09T22:47:14.838Z,48.48
2022-11-09T22:49:41.258Z,48.53
2022-11-09T22:54:52.016Z,48.18
2022-11-09T22:57:19.396Z,49.00
2022-11-09T22:59:45.869Z,48.37
2022-11-09T23:02:13.262Z,48.85
2022-11-09T23:04:40.656Z,48.61
2022-11-09T23:09:52.047Z,48.18
2022-11-09T23:12:19.448Z,48.72
2022-11-09T23:14:45.931Z,48.55
2022-11-09T23:17:13.341Z,48.95
2022-11-09T23:19:39.792Z,48.64
2022-11-09T23:24:50.236Z,48.81
2022-11-09T23:27:17.653Z,48.87
2022-11-09T23:29:44.095Z,49.46
2022-11-09T23:32:11.496Z,49.18
2022-11-09T23:34:37.952Z,48.81
2022-11-09T23:37:04.503Z,49.18
2022-11-09T23:39:31.894Z,49.09
2022-11-09T23:41:58.352Z,48.90
2022-11-09T23:44:25.739Z,48.80
2022-11-09T23:46:52.191Z,48.57
2022-11-09T23:49:19.590Z,48.44
2022-11-09T23:51:46.057Z,48.30
2022-11-09T23:54:12.510Z,48.39
2022-11-09T23:56:38.983Z,48.62
2022-11-09T23:59:05.488Z,48.70
